createdAt,value
2018-06-14T00:01:39.584Z,95395.00
2018-06-14T00:04:09.491Z,95400.00
2018-06-14T00:06:39.604Z,95404.00
2018-06-14T00:09:09.822Z,95413.00
2018-06-14T00:11:39.425Z,95411.00
2018-06-14T00:14:08.850Z,95406.00
2018-06-14T00:16:38.221Z,95413.00
2018-06-14T00:19:07.700Z,95410.00
2018-06-14T00:21:37.086Z,95414.00
2018-06-14T00:24:06.511Z,95415.00
2018-06-14T00:26:36.019Z,95411.00
2018-06-14T00:29:05.548Z,95406.00
2018-06-14T00:31:35.490Z,95405.00
2018-06-14T00:34:04.962Z,95405.00
2018-06-14T00:36:34.910Z,95409.00
2018-06-14T00:39:06.122Z,95408.00
2018-06-14T00:41:35.530Z,95406.00
2018-06-14T00:44:04.946Z,95402.00
2018-06-14T00:46:34.029Z,95405.00
2018-06-14T00:49:03.601Z,95405.00
2018-06-14T00:51:33.121Z,95409.00
2018-06-14T00:54:02.519Z,95411.00
2018-06-14T00:56:47.409Z,95413.00
2018-06-14T00:59:16.500Z,95415.00
2018-06-14T01:01:46.163Z,95414.00
2018-06-14T01:04:15.559Z,95411.00
2018-06-14T01:06:45.341Z,95406.00
2018-06-14T01:09:15.391Z,95410.00
2018-06-14T01:11:44.816Z,95414.00
2018-06-14T01:14:14.263Z,95410.00
2018-06-14T01:16:43.653Z,95413.00
2018-06-14T01:19:13.099Z,95406.00
2018-06-14T01:21:43.023Z,95408.00
2018-06-14T01:24:12.465Z,95408.00
2018-06-14T01:26:41.875Z,95416.00
2018-06-14T01:29:11.192Z,95397.00
2018-06-14T01:31:40.537Z,95410.00
2018-06-14T01:34:10.556Z,95411.00
2018-06-14T01:36:39.963Z,95409.00
2018-06-14T01:39:10.340Z,95399.00
2018-06-14T01:41:41.313Z,95404.00
2018-06-14T01:44:11.834Z,95399.00
2018-06-14T01:46:41.692Z,95387.00
2018-06-14T01:49:11.046Z,95387.00
2018-06-14T01:51:40.472Z,95384.00
2018-06-14T01:54:10.002Z,95381.00
2018-06-14T01:56:39.538Z,95391.00
2018-06-14T01:59:09.074Z,95397.00
2018-06-14T02:01:38.604Z,95395.00
2018-06-14T02:04:07.999Z,95393.00
2018-06-14T02:06:37.358Z,95397.00
2018-06-14T02:09:08.860Z,95389.00
2018-06-14T02:11:38.254Z,95399.00
2018-06-14T02:14:07.709Z,95399.00
2018-06-14T02:16:37.129Z,95398.00
2018-06-14T02:19:06.473Z,95395.00
2018-06-14T02:21:36.307Z,95391.00
2018-06-14T02:24:05.695Z,95393.00
2018-06-14T02:26:35.275Z,95402.00
2018-06-14T02:29:04.679Z,95394.00
2018-06-14T02:31:34.595Z,95387.00
2018-06-14T02:34:04.061Z,95397.00
2018-06-14T02:36:33.495Z,95400.00
2018-06-14T02:39:02.904Z,95390.00
2018-06-14T02:41:32.302Z,95392.00
2018-06-14T02:44:01.715Z,95397.00
2018-06-14T02:46:31.182Z,95383.00
2018-06-14T02:49:00.321Z,95395.00
2018-06-14T02:51:29.818Z,95389.00
2018-06-14T02:53:59.800Z,95393.00
2018-06-14T02:56:29.307Z,95396.00
2018-06-14T02:58:58.682Z,95394.00
2018-06-14T03:01:28.057Z,95406.00
2018-06-14T03:03:57.968Z,95403.00
2018-06-14T03:06:28.183Z,95403.00
2018-06-14T03:08:57.580Z,95395.00
2018-06-14T03:11:26.964Z,95391.00
2018-06-14T03:13:56.385Z,95394.00
2018-06-14T03:16:25.733Z,95398.00
2018-06-14T03:18:55.060Z,95387.00
2018-06-14T03:21:24.515Z,95391.00
2018-06-14T03:23:53.903Z,95388.00
2018-06-14T03:26:23.245Z,95385.00
2018-06-14T03:28:52.976Z,95379.00
2018-06-14T03:31:22.322Z,95379.00
2018-06-14T03:33:51.655Z,95378.00
2018-06-14T03:36:21.063Z,95378.00
2018-06-14T03:38:50.234Z,95388.00
2018-06-14T03:41:19.688Z,95383.00
2018-06-14T03:43:49.838Z,95388.00
2018-06-14T03:46:19.894Z,95387.00
2018-06-14T03:48:49.200Z,95387.00
2018-06-14T03:51:18.563Z,95382.00
2018-06-14T03:53:47.937Z,95396.00
2018-06-14T03:56:17.466Z,95390.00
2018-06-14T03:58:46.951Z,95386.00
2018-06-14T04:01:16.295Z,95382.00
2018-06-14T04:03:45.728Z,95389.00
2018-06-14T04:06:15.085Z,95383.00
2018-06-14T04:08:44.605Z,95385.00
2018-06-14T04:11:14.030Z,95377.00
2018-06-14T04:13:43.445Z,95388.00
2018-06-14T04:16:12.836Z,95380.00
2018-06-14T04:18:42.646Z,95383.00
2018-06-14T04:21:12.496Z,95381.00
2018-06-14T04:23:41.931Z,95383.00
2018-06-14T04:26:11.386Z,95390.00
2018-06-14T04:28:40.756Z,95386.00
2018-06-14T04:31:10.154Z,95391.00
2018-06-14T04:33:39.511Z,95393.00
2018-06-14T04:36:10.080Z,95391.00
2018-06-14T04:38:39.484Z,95394.00
2018-06-14T04:41:09.426Z,95389.00
2018-06-14T04:43:38.482Z,95395.00
2018-06-14T04:46:08.130Z,95382.00
2018-06-14T04:48:37.633Z,95390.00
2018-06-14T04:51:07.657Z,95395.00
2018-06-14T04:53:41.426Z,95402.00
2018-06-14T04:56:13.114Z,95401.00
2018-06-14T04:58:42.552Z,95403.00
2018-06-14T05:01:12.221Z,95399.00
2018-06-14T05:03:43.219Z,95402.00
2018-06-14T05:15:53.800Z,95407.00
2018-06-14T05:18:25.952Z,95401.00
2018-06-14T05:20:55.405Z,95404.00
2018-06-14T05:23:27.835Z,95413.00
2018-06-14T05:25:57.378Z,95410.00
2018-06-14T05:28:27.371Z,95409.00
2018-06-14T05:30:57.360Z,95415.00
2018-06-14T05:33:32.247Z,95409.00
2018-06-14T05:36:06.464Z,95415.00
2018-06-14T05:38:36.837Z,95415.00
2018-06-14T05:41:06.059Z,95415.00
2018-06-14T05:43:40.101Z,95400.00
2018-06-14T05:46:16.659Z,95411.00
2018-06-14T05:48:47.806Z,95417.00
2018-06-14T05:51:17.223Z,95416.00
2018-06-14T05:53:46.693Z,95420.00
2018-06-14T05:56:16.260Z,95417.00
2018-06-14T05:58:46.495Z,95415.00
2018-06-14T06:01:19.011Z,95414.00
2018-06-14T06:03:49.571Z,95425.00
2018-06-14T06:06:24.264Z,95421.00
2018-06-14T06:08:54.756Z,95428.00
2018-06-14T06:11:24.557Z,95420.00
2018-06-14T06:13:57.111Z,95417.00
2018-06-14T06:16:27.231Z,95420.00
2018-06-14T06:18:56.873Z,95416.00
2018-06-14T06:21:27.032Z,95423.00
2018-06-14T06:23:59.047Z,95418.00
2018-06-14T06:26:28.546Z,95420.00
2018-06-14T06:28:58.923Z,95427.00
2018-06-14T06:31:28.791Z,95418.00
2018-06-14T06:33:58.933Z,95419.00
2018-06-14T06:36:29.594Z,95428.00
2018-06-14T06:39:05.780Z,95421.00
2018-06-14T06:41:35.260Z,95424.00
2018-06-14T06:44:05.034Z,95424.00
2018-06-14T06:46:34.442Z,95430.00
2018-06-14T06:49:05.071Z,95426.00
2018-06-14T06:51:34.906Z,95423.00
2018-06-14T06:54:04.890Z,95423.00
2018-06-14T06:56:34.750Z,95423.00
2018-06-14T06:59:04.532Z,95426.00
2018-06-14T07:01:33.989Z,95421.00
2018-06-14T07:04:13.379Z,95416.00
2018-06-14T07:06:43.497Z,95423.00
2018-06-14T07:09:13.590Z,95415.00
2018-06-14T07:11:43.031Z,95414.00
2018-06-14T07:14:13.177Z,95420.00
2018-06-14T07:16:43.285Z,95426.00
2018-06-14T07:19:17.219Z,95434.00
2018-06-14T07:21:47.688Z,95427.00
2018-06-14T07:24:17.072Z,95422.00
2018-06-14T07:26:46.451Z,95429.00
2018-06-14T07:29:16.611Z,95419.00
2018-06-14T07:44:41.788Z,95431.00
2018-06-14T07:47:11.169Z,95433.00
2018-06-14T07:49:45.110Z,95431.00
2018-06-14T07:52:14.476Z,95432.00
2018-06-14T07:54:44.094Z,95434.00
2018-06-14T07:57:13.560Z,95442.00
2018-06-14T07:59:43.276Z,95443.00
2018-06-14T08:02:12.709Z,95432.00
2018-06-14T08:04:42.739Z,95427.00
2018-06-14T08:07:12.072Z,95434.00
2018-06-14T08:09:41.720Z,95433.00
2018-06-14T08:12:11.338Z,95432.00
2018-06-14T08:14:41.556Z,95430.00
2018-06-14T08:17:10.972Z,95431.00
2018-06-14T08:19:41.112Z,95430.00
2018-06-14T08:22:11.226Z,95425.00
2018-06-14T08:24:40.614Z,95434.00
2018-06-14T08:27:10.080Z,95434.00
2018-06-14T08:29:39.472Z,95427.00
2018-06-14T08:32:08.864Z,95426.00
2018-06-14T08:34:38.829Z,95433.00
2018-06-14T08:37:09.301Z,95424.00
2018-06-14T08:39:38.712Z,95434.00
2018-06-14T08:42:08.208Z,95432.00
2018-06-14T08:44:37.623Z,95423.00
2018-06-14T08:47:07.098Z,95422.00
2018-06-14T08:49:36.583Z,95428.00
2018-06-14T08:52:06.035Z,95422.00
2018-06-14T08:54:35.461Z,95426.00
2018-06-14T08:57:05.955Z,95422.00
2018-06-14T08:59:35.825Z,95426.00
2018-06-14T09:02:05.621Z,95433.00
2018-06-14T09:04:35.185Z,95426.00
2018-06-14T09:07:04.554Z,95426.00
2018-06-14T09:09:36.861Z,95426.00
2018-06-14T09:12:06.881Z,95434.00
2018-06-14T09:14:42.254Z,95432.00
2018-06-14T09:17:11.705Z,95432.00
2018-06-14T09:19:41.339Z,95437.00
2018-06-14T09:22:10.762Z,95440.00
2018-06-14T09:24:40.100Z,95447.00
2018-06-14T09:27:09.587Z,95442.00
2018-06-14T09:29:39.445Z,95441.00
2018-06-14T09:32:08.846Z,95444.00
2018-06-14T09:34:42.755Z,95437.00
2018-06-14T09:37:13.948Z,95439.00
2018-06-14T09:39:44.431Z,95442.00
2018-06-14T09:42:14.235Z,95453.00
2018-06-14T09:44:43.618Z,95459.00
2018-06-14T09:47:13.459Z,95453.00
2018-06-14T09:49:43.261Z,95449.00
2018-06-14T09:52:13.702Z,95444.00
2018-06-14T09:54:44.213Z,95433.00
2018-06-14T09:57:13.579Z,95437.00
2018-06-14T09:59:43.528Z,95444.00
2018-06-14T10:02:13.608Z,95435.00
2018-06-14T10:04:43.668Z,95441.00
2018-06-14T10:07:13.085Z,95444.00
2018-06-14T10:09:42.616Z,95436.00
2018-06-14T10:12:11.995Z,95449.00
2018-06-14T10:14:42.826Z,95448.00
2018-06-14T10:17:13.283Z,95448.00
2018-06-14T10:19:43.751Z,95445.00
2018-06-14T10:22:13.643Z,95453.00
2018-06-14T10:24:43.937Z,95448.00
2018-06-14T10:27:14.741Z,95434.00
2018-06-14T10:29:45.569Z,95434.00
2018-06-14T10:32:16.583Z,95435.00
2018-06-14T10:34:47.517Z,95429.00
2018-06-14T10:37:17.468Z,95433.00
2018-06-14T10:39:47.633Z,95435.00
2018-06-14T10:42:17.808Z,95430.00
2018-06-14T10:44:48.511Z,95429.00
2018-06-14T10:47:17.936Z,95432.00
2018-06-14T10:49:47.852Z,95427.00
2018-06-14T10:52:18.824Z,95432.00
2018-06-14T10:54:48.275Z,95418.00
2018-06-14T10:57:17.732Z,95428.00
2018-06-14T10:59:48.437Z,95427.00
2018-06-14T11:02:17.606Z,95416.00
2018-06-14T11:04:47.036Z,95427.00
2018-06-14T11:07:16.983Z,95428.00
2018-06-14T11:09:46.472Z,95420.00
2018-06-14T11:12:15.953Z,95420.00
2018-06-14T11:14:45.513Z,95417.00
2018-06-14T11:17:14.900Z,95430.00
2018-06-14T11:19:44.939Z,95415.00
2018-06-14T11:22:14.291Z,95411.00
2018-06-14T11:24:43.725Z,95419.00
2018-06-14T11:27:14.777Z,95420.00
2018-06-14T11:29:44.252Z,95418.00
2018-06-14T11:32:13.631Z,95410.00
2018-06-14T11:34:43.155Z,95409.00
2018-06-14T11:37:12.230Z,95412.00
2018-06-14T11:39:41.721Z,95403.00
2018-06-14T11:42:11.128Z,95404.00
2018-06-14T11:44:40.532Z,95392.00
2018-06-14T11:47:09.996Z,95397.00
2018-06-14T11:49:39.475Z,95401.00
2018-06-14T11:52:09.007Z,95393.00
2018-06-14T11:54:39.170Z,95396.00
2018-06-14T11:57:08.535Z,95396.00
2018-06-14T11:59:38.089Z,95394.00
2018-06-14T12:02:07.718Z,95394.00
2018-06-14T12:04:37.084Z,95393.00
2018-06-14T12:07:06.650Z,95398.00
2018-06-14T12:09:36.264Z,95399.00
2018-06-14T12:12:06.031Z,95394.00
2018-06-14T12:14:35.545Z,95390.00
2018-06-14T12:17:04.927Z,95396.00
2018-06-14T12:19:34.319Z,95388.00
2018-06-14T12:22:04.612Z,95392.00
2018-06-14T12:24:34.618Z,95400.00
2018-06-14T12:27:04.125Z,95400.00
2018-06-14T12:29:33.569Z,95402.00
2018-06-14T12:32:03.010Z,95407.00
2018-06-14T12:34:32.411Z,95397.00
2018-06-14T12:37:01.811Z,95402.00
2018-06-14T12:39:31.208Z,95402.00
2018-06-14T12:42:00.660Z,95397.00
2018-06-14T12:44:30.127Z,95402.00
2018-06-14T12:46:59.564Z,95391.00
2018-06-14T12:49:28.975Z,95391.00
2018-06-14T12:51:58.439Z,95398.00
2018-06-14T12:54:27.779Z,95397.00
2018-06-14T12:56:57.253Z,95379.00
2018-06-14T12:59:26.636Z,95383.00
2018-06-14T13:01:56.026Z,95378.00
2018-06-14T13:04:25.464Z,95379.00
2018-06-14T13:06:55.053Z,95374.00
2018-06-14T13:09:25.069Z,95382.00
2018-06-14T13:11:54.569Z,95372.00
2018-06-14T13:14:28.801Z,95374.00
2018-06-14T13:16:58.163Z,95374.00
2018-06-14T13:19:27.540Z,95382.00
2018-06-14T13:21:56.987Z,95382.00
2018-06-14T13:24:28.884Z,95370.00
2018-06-14T13:26:58.366Z,95378.00
2018-06-14T13:29:27.744Z,95367.00
2018-06-14T13:31:57.128Z,95381.00
2018-06-14T13:34:26.468Z,95375.00
2018-06-14T13:36:55.886Z,95368.00
2018-06-14T13:39:25.952Z,95375.00
2018-06-14T13:41:56.976Z,95370.00
2018-06-14T13:44:27.640Z,95363.00
2018-06-14T13:46:58.576Z,95359.00
2018-06-14T13:49:28.575Z,95376.00
2018-06-14T13:51:58.920Z,95361.00
2018-06-14T13:54:28.276Z,95356.00
2018-06-14T13:56:57.883Z,95354.00
2018-06-14T13:59:27.273Z,95353.00
2018-06-14T14:01:56.690Z,95351.00
2018-06-14T14:04:26.191Z,95345.00
2018-06-14T14:07:11.092Z,95345.00
2018-06-14T14:09:40.554Z,95336.00
2018-06-14T14:12:10.047Z,95339.00
2018-06-14T14:14:39.636Z,95336.00
2018-06-14T14:17:10.483Z,95336.00
2018-06-14T14:19:40.638Z,95339.00
2018-06-14T14:22:10.638Z,95334.00
2018-06-14T14:24:41.334Z,95334.00
2018-06-14T14:27:11.003Z,95337.00
2018-06-14T14:29:41.304Z,95343.00
2018-06-14T14:32:11.323Z,95339.00
2018-06-14T14:34:41.839Z,95338.00
2018-06-14T14:37:12.306Z,95339.00
2018-06-14T14:39:42.053Z,95327.00
2018-06-14T14:42:12.355Z,95326.00
2018-06-14T14:44:41.738Z,95330.00
2018-06-14T14:47:13.859Z,95329.00
2018-06-14T14:49:43.983Z,95327.00
2018-06-14T14:52:13.442Z,95322.00
2018-06-14T14:54:46.763Z,95320.00
2018-06-14T14:57:16.698Z,95318.00
2018-06-14T14:59:46.496Z,95321.00
2018-06-14T15:02:16.003Z,95311.00
2018-06-14T15:04:46.672Z,95311.00
2018-06-14T15:07:16.419Z,95318.00
2018-06-14T15:09:46.218Z,95307.00
2018-06-14T15:12:16.479Z,95323.00
2018-06-14T15:14:47.076Z,95316.00
2018-06-14T15:17:18.918Z,95321.00
2018-06-14T15:19:49.068Z,95319.00
2018-06-14T15:22:19.610Z,95323.00
2018-06-14T15:24:51.481Z,95323.00
2018-06-14T15:27:21.058Z,95323.00
2018-06-14T15:29:51.288Z,95325.00
2018-06-14T15:32:21.223Z,95322.00
2018-06-14T15:34:50.787Z,95322.00
2018-06-14T15:37:20.933Z,95333.00
2018-06-14T15:39:50.489Z,95330.00
2018-06-14T15:42:20.074Z,95329.00
2018-06-14T15:44:51.417Z,95325.00
2018-06-14T15:47:21.141Z,95330.00
2018-06-14T15:49:51.352Z,95324.00
2018-06-14T15:52:21.957Z,95331.00
2018-06-14T15:55:08.392Z,95325.00
2018-06-14T15:57:38.970Z,95317.00
2018-06-14T16:00:08.389Z,95317.00
2018-06-14T16:02:38.537Z,95323.00
2018-06-14T16:05:08.582Z,95316.00
2018-06-14T16:07:37.981Z,95321.00
2018-06-14T16:10:07.454Z,95329.00
2018-06-14T16:12:39.422Z,95322.00
2018-06-14T16:15:08.866Z,95323.00
2018-06-14T16:17:38.476Z,95324.00
2018-06-14T16:20:08.862Z,95321.00
2018-06-14T16:22:38.544Z,95316.00
2018-06-14T16:25:08.531Z,95326.00
2018-06-14T16:27:38.698Z,95328.00
2018-06-14T16:30:09.172Z,95325.00
2018-06-14T16:32:39.898Z,95332.00
2018-06-14T16:35:10.164Z,95333.00
2018-06-14T16:37:40.483Z,95330.00
2018-06-14T16:40:09.928Z,95327.00
2018-06-14T16:42:41.111Z,95334.00
2018-06-14T16:45:10.757Z,95329.00
2018-06-14T16:47:42.437Z,95328.00
2018-06-14T16:50:12.658Z,95335.00
2018-06-14T16:52:42.547Z,95329.00
2018-06-14T16:55:13.917Z,95335.00
2018-06-14T16:57:44.153Z,95333.00
2018-06-14T17:00:15.006Z,95332.00
2018-06-14T17:02:46.061Z,95333.00
2018-06-14T17:05:16.257Z,95324.00
2018-06-14T17:07:46.184Z,95324.00
2018-06-14T17:10:16.517Z,95329.00
2018-06-14T17:12:47.390Z,95328.00
2018-06-14T17:15:17.011Z,95333.00
2018-06-14T17:17:47.846Z,95320.00
2018-06-14T17:20:17.783Z,95329.00
2018-06-14T17:22:53.595Z,95331.00
2018-06-14T17:25:23.482Z,95333.00
2018-06-14T17:27:54.857Z,95332.00
2018-06-14T17:30:29.007Z,95334.00
2018-06-14T17:32:58.771Z,95328.00
2018-06-14T17:35:28.864Z,95326.00
2018-06-14T17:37:58.618Z,95326.00
2018-06-14T17:40:29.252Z,95335.00
2018-06-14T17:42:59.383Z,95341.00
2018-06-14T17:45:28.787Z,95334.00
2018-06-14T17:47:59.438Z,95329.00
2018-06-14T17:50:29.232Z,95338.00
2018-06-14T17:52:59.386Z,95337.00
2018-06-14T17:55:29.561Z,95338.00
2018-06-14T17:57:59.831Z,95340.00
2018-06-14T18:00:29.279Z,95347.00
2018-06-14T18:02:59.479Z,95331.00
2018-06-14T18:05:31.534Z,95343.00
2018-06-14T18:08:04.192Z,95344.00
2018-06-14T18:10:35.783Z,95346.00
2018-06-14T18:13:07.612Z,95344.00
2018-06-14T18:15:38.228Z,95347.00
2018-06-14T18:18:10.802Z,95343.00
2018-06-14T18:33:35.396Z,95354.00
2018-06-14T18:36:05.092Z,95356.00
2018-06-14T18:38:34.456Z,95365.00
2018-06-14T18:41:03.802Z,95365.00
2018-06-14T18:43:33.443Z,95366.00
2018-06-14T18:46:03.017Z,95380.00
2018-06-14T18:48:33.302Z,95375.00
2018-06-14T18:51:02.663Z,95379.00
2018-06-14T18:53:32.005Z,95374.00
2018-06-14T18:56:03.300Z,95375.00
2018-06-14T18:58:34.162Z,95375.00
2018-06-14T19:01:08.367Z,95381.00
2018-06-14T19:03:42.674Z,95390.00
2018-06-14T19:06:12.760Z,95389.00
2018-06-14T19:08:42.304Z,95392.00
2018-06-14T19:11:11.790Z,95400.00
2018-06-14T19:13:42.040Z,95397.00
2018-06-14T19:16:11.679Z,95401.00
2018-06-14T19:18:41.135Z,95403.00
2018-06-14T19:21:11.742Z,95402.00
2018-06-14T19:23:41.245Z,95409.00
2018-06-14T19:26:12.745Z,95412.00
2018-06-14T19:28:43.015Z,95418.00
2018-06-14T19:31:13.897Z,95430.00
2018-06-14T19:33:43.875Z,95429.00
2018-06-14T19:36:17.923Z,95430.00
2018-06-14T19:38:47.669Z,95439.00
2018-06-14T19:41:17.551Z,95442.00
2018-06-14T19:43:47.343Z,95450.00
2018-06-14T19:46:18.795Z,95449.00
2018-06-14T19:48:48.133Z,95448.00
2018-06-14T19:51:18.135Z,95447.00
2018-06-14T19:53:47.551Z,95461.00
2018-06-14T19:56:16.971Z,95454.00
2018-06-14T19:58:47.861Z,95467.00
2018-06-14T20:01:17.797Z,95465.00
2018-06-14T20:03:47.964Z,95468.00
2018-06-14T20:06:17.541Z,95470.00
2018-06-14T20:08:47.527Z,95479.00
2018-06-14T20:11:17.746Z,95480.00
2018-06-14T20:13:51.915Z,95485.00
2018-06-14T20:16:21.438Z,95488.00
2018-06-14T20:18:59.462Z,95493.00
2018-06-14T20:21:28.832Z,95491.00
2018-06-14T20:23:58.272Z,95480.00
2018-06-14T20:26:27.748Z,95494.00
2018-06-14T20:28:57.148Z,95495.00
2018-06-14T20:31:27.257Z,95503.00
2018-06-14T20:33:57.192Z,95509.00
2018-06-14T20:36:26.622Z,95506.00
2018-06-14T20:38:56.702Z,95514.00
2018-06-14T20:41:26.126Z,95510.00
2018-06-14T20:43:56.197Z,95522.00
2018-06-14T20:46:25.677Z,95524.00
2018-06-14T20:48:57.450Z,95531.00
2018-06-14T20:51:27.600Z,95527.00
2018-06-14T20:53:57.470Z,95529.00
2018-06-14T20:56:27.500Z,95530.00
2018-06-14T20:58:56.906Z,95531.00
2018-06-14T21:01:26.464Z,95535.00
2018-06-14T21:03:56.021Z,95540.00
2018-06-14T21:06:25.837Z,95532.00
2018-06-14T21:08:55.234Z,95533.00
2018-06-14T21:11:24.635Z,95531.00
2018-06-14T21:13:54.667Z,95530.00
2018-06-14T21:16:24.319Z,95536.00
2018-06-14T21:18:54.872Z,95531.00
2018-06-14T21:21:24.456Z,95525.00
2018-06-14T21:23:59.018Z,95537.00
2018-06-14T21:26:35.191Z,95540.00
2018-06-14T21:29:05.130Z,95532.00
2018-06-14T21:31:34.571Z,95542.00
2018-06-14T21:34:04.046Z,95535.00
2018-06-14T21:36:34.833Z,95539.00
2018-06-14T21:39:06.997Z,95530.00
2018-06-14T21:41:37.010Z,95535.00
2018-06-14T21:44:10.944Z,95539.00
2018-06-14T21:46:48.216Z,95535.00
2018-06-14T21:49:20.939Z,95537.00
2018-06-14T21:51:50.040Z,95529.00
2018-06-14T21:54:19.451Z,95539.00
2018-06-14T21:56:48.890Z,95542.00
2018-06-14T21:59:19.491Z,95537.00
2018-06-14T22:01:49.031Z,95542.00
2018-06-14T22:04:19.281Z,95537.00
2018-06-14T22:06:48.785Z,95545.00
2018-06-14T22:09:18.365Z,95531.00
2018-06-14T22:11:47.920Z,95538.00
2018-06-14T22:14:17.961Z,95534.00
2018-06-14T22:16:47.933Z,95532.00
2018-06-14T22:19:17.121Z,95535.00
2018-06-14T22:21:47.293Z,95550.00
2018-06-14T22:24:16.883Z,95539.00
2018-06-14T22:26:47.057Z,95537.00
2018-06-14T22:29:16.993Z,95534.00
2018-06-14T22:31:46.530Z,95534.00
2018-06-14T22:34:32.667Z,95524.00
2018-06-14T22:37:02.747Z,95523.00
2018-06-14T22:39:32.269Z,95529.00
2018-06-14T22:42:01.762Z,95519.00
2018-06-14T22:44:35.864Z,95527.00
2018-06-14T22:47:05.002Z,95520.00
2018-06-14T22:49:34.439Z,95522.00
2018-06-14T22:53:15.405Z,95513.00
2018-06-14T22:55:44.788Z,95517.00
2018-06-14T22:58:14.905Z,95516.00
2018-06-14T23:01:53.767Z,95517.00
2018-06-14T23:04:24.215Z,95520.00
2018-06-14T23:06:53.806Z,95526.00
2018-06-14T23:10:38.188Z,95510.00
2018-06-14T23:13:09.512Z,95527.00
2018-06-14T23:15:38.894Z,95521.00
2018-06-14T23:18:08.371Z,95521.00
2018-06-14T23:20:38.028Z,95517.00
2018-06-14T23:23:08.075Z,95517.00
2018-06-14T23:25:38.278Z,95520.00
2018-06-14T23:28:12.008Z,95518.00
2018-06-14T23:30:41.388Z,95514.00
2018-06-14T23:33:10.890Z,95517.00
2018-06-14T23:35:40.314Z,95517.00
2018-06-14T23:38:09.708Z,95515.00
2018-06-14T23:40:40.138Z,95504.00
2018-06-14T23:43:09.553Z,95508.00
2018-06-14T23:45:38.922Z,95509.00
2018-06-14T23:48:08.312Z,95511.00
2018-06-14T23:50:37.723Z,95512.00
2018-06-14T23:53:07.250Z,95507.00
2018-06-14T23:55:36.739Z,95503.00
2018-06-14T23:58:06.592Z,95509.00
